Time;durP1;ratioP1;P1;durP2;ratioP2;P2;SDS_P1;SDS_P2;PMS_P1;PMS_P2;Temp;Humidity;BMP_temperature;BMP_pressure;BME280_temperature;BME280_humidity;BME280_pressure;Samples;Min_cycle;Max_cycle;Signal;HPM_P1;HPM_P2
2023/04/05 00:01:48;;;;;;;1.10;1.00;;;;;;;;;;5063998;28;20209;-59
2023/04/05 00:04:19;;;;;;;1.70;1.07;;;;;;;;;;5068224;28;20199;-58
2023/04/05 00:06:49;;;;;;;1.03;1.03;;;;;;;;;;5050917;28;20273;-59
2023/04/05 00:09:18;;;;;;;0.77;0.77;;;;;;;;;;5052235;28;20220;-59
2023/04/05 00:11:47;;;;;;;0.80;0.80;;;;;;;;;;5068707;28;20224;-58
2023/04/05 00:14:14;;;;;;;4.03;1.00;;;;;;;;;;5068110;28;20199;-58
2023/04/05 00:16:42;;;;;;;1.10;1.10;;;;;;;;;;5054453;28;20203;-59
2023/04/05 00:19:11;;;;;;;2.17;1.10;;;;;;;;;;5065743;28;20259;-59
2023/04/05 00:21:38;;;;;;;0.80;0.80;;;;;;;;;;5069428;28;20670;-60
2023/04/05 00:24:06;;;;;;;0.87;0.87;;;;;;;;;;5060647;28;20673;-60
2023/04/05 00:26:33;;;;;;;0.73;0.73;;;;;;;;;;5066317;28;20290;-59
2023/04/05 00:29:01;;;;;;;0.97;0.97;;;;;;;;;;5064960;28;20732;-57
2023/04/05 00:31:29;;;;;;;0.83;0.83;;;;;;;;;;5058472;28;20211;-58
2023/04/05 00:33:56;;;;;;;1.07;0.90;;;;;;;;;;5068108;28;20223;-60
2023/04/05 00:36:23;;;;;;;1.00;1.00;;;;;;;;;;5050235;28;20589;-57
2023/04/05 00:38:50;;;;;;;1.33;1.23;;;;;;;;;;5055839;28;20238;-59
2023/04/05 00:41:18;;;;;;;1.13;1.03;;;;;;;;;;5069142;28;20210;-57
2023/04/05 00:43:45;;;;;;;1.03;1.03;;;;;;;;;;5067627;28;20199;-57
2023/04/05 00:46:13;;;;;;;0.80;0.80;;;;;;;;;;5051718;28;20452;-58
2023/04/05 00:48:40;;;;;;;2.23;1.17;;;;;;;;;;5068291;28;20769;-58
2023/04/05 00:51:10;;;;;;;0.83;0.83;;;;;;;;;;5048777;28;20222;-58
2023/04/05 00:53:37;;;;;;;4.07;1.03;;;;;;;;;;5049266;28;20200;-59
2023/04/05 00:56:04;;;;;;;4.40;1.37;;;;;;;;;;5063654;28;20222;-58
2023/04/05 00:58:32;;;;;;;3.63;1.17;;;;;;;;;;5062070;28;20210;-59
2023/04/05 01:01:04;;;;;;;1.00;1.00;;;;;;;;;;5051796;28;20210;-58
2023/04/05 01:03:33;;;;;;;1.00;1.00;;;;;;;;;;5064339;28;20207;-58
2023/04/05 01:06:10;;;;;;;1.90;0.87;;;;;;;;;;5053252;28;20207;-58
2023/04/05 01:08:41;;;;;;;1.10;1.10;;;;;;;;;;5062004;28;20262;-58
2023/04/05 01:11:09;;;;;;;1.30;1.20;;;;;;;;;;5067667;28;20593;-58
2023/04/05 01:13:36;;;;;;;1.10;1.10;;;;;;;;;;5054848;28;20199;-59
2023/04/05 01:16:04;;;;;;;1.57;1.00;;;;;;;;;;5062716;28;20200;-59
2023/04/05 01:18:35;;;;;;;1.07;1.07;;;;;;;;;;5049669;28;20235;-59
2023/04/05 01:21:09;;;;;;;1.37;1.30;;;;;;;;;;5063273;28;20195;-59
2023/04/05 01:23:38;;;;;;;2.83;1.10;;;;;;;;;;5063949;28;20219;-59
2023/04/05 01:26:20;;;;;;;2.17;1.00;;;;;;;;;;5063737;28;20218;-59
2023/04/05 01:28:56;;;;;;;1.80;1.67;;;;;;;;;;5045350;28;20238;-59
2023/04/05 01:31:27;;;;;;;1.93;1.83;;;;;;;;;;5067697;28;20215;-60
2023/04/05 01:33:56;;;;;;;3.77;1.97;;;;;;;;;;5057172;28;20212;-59
2023/04/05 01:36:26;;;;;;;3.30;2.33;;;;;;;;;;5049195;28;20286;-57
2023/04/05 01:38:54;;;;;;;2.07;1.87;;;;;;;;;;5050834;28;20725;-58
2023/04/05 01:41:22;;;;;;;2.77;2.50;;;;;;;;;;5048610;28;20226;-58
2023/04/05 01:43:49;;;;;;;8.07;3.23;;;;;;;;;;5060171;28;20670;-59
2023/04/05 01:46:16;;;;;;;5.30;3.07;;;;;;;;;;5065629;28;20411;-58
2023/04/05 01:48:44;;;;;;;2.03;1.80;;;;;;;;;;5048230;28;20206;-58
2023/04/05 01:51:11;;;;;;;3.53;2.53;;;;;;;;;;5048198;28;20735;-59
2023/04/05 01:53:38;;;;;;;5.70;1.90;;;;;;;;;;5048628;28;20199;-57
2023/04/05 01:56:05;;;;;;;3.23;1.60;;;;;;;;;;5061291;28;20216;-58
2023/04/05 01:58:32;;;;;;;7.13;3.13;;;;;;;;;;5058786;28;20207;-59
2023/04/05 02:00:59;;;;;;;8.17;4.77;;;;;;;;;;5048903;28;20622;-58
2023/04/05 02:03:27;;;;;;;21.20;4.80;;;;;;;;;;5051716;28;20206;-59
2023/04/05 02:05:55;;;;;;;15.87;4.63;;;;;;;;;;5068313;28;20218;-58
2023/04/05 02:08:22;;;;;;;26.73;4.00;;;;;;;;;;5066579;28;20213;-58
2023/04/05 02:10:49;;;;;;;8.53;3.00;;;;;;;;;;5048885;28;20599;-58
2023/04/05 02:13:16;;;;;;;6.13;2.43;;;;;;;;;;5062297;28;20236;-59
2023/04/05 02:15:48;;;;;;;8.87;3.30;;;;;;;;;;5059570;28;20697;-58
2023/04/05 02:18:15;;;;;;;7.07;2.77;;;;;;;;;;5047615;28;20555;-58
2023/04/05 02:20:43;;;;;;;7.90;2.73;;;;;;;;;;5047785;28;20223;-58
2023/04/05 02:23:12;;;;;;;8.17;2.73;;;;;;;;;;5048241;28;20222;-58
2023/04/05 02:25:39;;;;;;;5.00;2.83;;;;;;;;;;5056516;28;20212;-58
2023/04/05 02:28:06;;;;;;;4.13;2.97;;;;;;;;;;5059011;28;20201;-58
2023/04/05 02:30:33;;;;;;;6.60;2.60;;;;;;;;;;5060621;28;20610;-58
2023/04/05 02:33:00;;;;;;;1.97;1.77;;;;;;;;;;5048447;28;20232;-59
2023/04/05 02:35:27;;;;;;;1.77;1.67;;;;;;;;;;5060838;28;20206;-60
2023/04/05 02:37:55;;;;;;;1.50;1.40;;;;;;;;;;5049046;28;20436;-59
2023/04/05 02:40:24;;;;;;;1.13;1.03;;;;;;;;;;5061034;28;20208;-60
2023/04/05 02:42:51;;;;;;;1.87;1.50;;;;;;;;;;5071621;28;20619;-59
2023/04/05 02:45:18;;;;;;;1.00;0.97;;;;;;;;;;5068352;28;20214;-59
2023/04/05 02:47:45;;;;;;;3.97;2.17;;;;;;;;;;5069040;28;20201;-59
2023/04/05 02:50:12;;;;;;;4.90;2.83;;;;;;;;;;5070718;28;20706;-58
2023/04/05 02:52:39;;;;;;;2.10;1.80;;;;;;;;;;5056418;28;20210;-59
2023/04/05 02:55:07;;;;;;;1.97;1.77;;;;;;;;;;5057694;28;20214;-59
2023/04/05 02:57:35;;;;;;;1.27;1.27;;;;;;;;;;5051969;28;20284;-60
2023/04/05 03:00:03;;;;;;;3.23;1.97;;;;;;;;;;5054188;28;20470;-59
2023/04/05 03:02:30;;;;;;;1.23;1.13;;;;;;;;;;5066516;28;20201;-60
2023/04/05 03:05:01;;;;;;;2.50;1.87;;;;;;;;;;5071613;28;20210;-59
2023/04/05 03:07:28;;;;;;;2.00;1.90;;;;;;;;;;5059629;28;20196;-59
2023/04/05 03:09:55;;;;;;;2.13;1.93;;;;;;;;;;5070746;28;20231;-59
2023/04/05 03:12:22;;;;;;;1.30;1.20;;;;;;;;;;5055292;28;20667;-57
2023/04/05 03:14:51;;;;;;;0.93;0.93;;;;;;;;;;5069360;28;20222;-58
2023/04/05 03:17:18;;;;;;;0.93;0.93;;;;;;;;;;5063783;28;20208;-57
2023/04/05 03:19:45;;;;;;;1.07;0.87;;;;;;;;;;5061854;28;20690;-57
2023/04/05 03:22:12;;;;;;;6.00;1.40;;;;;;;;;;5067295;28;20251;-57
2023/04/05 03:24:41;;;;;;;1.00;1.00;;;;;;;;;;5055211;28;20210;-57
2023/04/05 03:27:08;;;;;;;1.40;1.40;;;;;;;;;;5052061;28;20232;-57
2023/04/05 03:29:35;;;;;;;0.77;0.77;;;;;;;;;;5069051;28;20207;-58
2023/04/05 03:32:04;;;;;;;2.00;1.30;;;;;;;;;;5055466;28;20210;-58
2023/04/05 03:34:31;;;;;;;0.57;0.57;;;;;;;;;;5056388;28;20208;-58
2023/04/05 03:36:58;;;;;;;2.10;1.13;;;;;;;;;;5051223;28;20214;-58
2023/04/05 03:39:26;;;;;;;1.27;1.20;;;;;;;;;;5051963;28;20227;-58
2023/04/05 03:41:53;;;;;;;1.20;1.20;;;;;;;;;;5050663;28;20309;-57
2023/04/05 03:44:20;;;;;;;1.60;1.03;;;;;;;;;;5056424;28;20203;-58
2023/04/05 03:46:47;;;;;;;1.23;1.10;;;;;;;;;;5070312;28;20203;-58
2023/04/05 03:49:15;;;;;;;1.10;1.10;;;;;;;;;;5067847;28;20203;-58
2023/04/05 03:51:42;;;;;;;1.83;1.73;;;;;;;;;;5058751;28;20255;-58
2023/04/05 03:54:09;;;;;;;0.90;0.90;;;;;;;;;;5056637;28;20214;-58
2023/04/05 03:56:36;;;;;;;1.43;1.00;;;;;;;;;;5059949;28;20579;-60
2023/04/05 03:59:03;;;;;;;1.60;1.50;;;;;;;;;;5056781;28;20207;-58
2023/04/05 04:01:31;;;;;;;1.27;1.27;;;;;;;;;;5067809;28;20202;-58
2023/04/05 04:03:59;;;;;;;1.73;1.60;;;;;;;;;;5064805;28;20211;-58
2023/04/05 04:06:29;;;;;;;4.90;1.10;;;;;;;;;;5060025;28;20656;-58
2023/04/05 04:08:56;;;;;;;1.13;1.13;;;;;;;;;;5061045;28;20220;-57
2023/04/05 04:11:23;;;;;;;1.10;1.10;;;;;;;;;;5066762;28;20254;-57
2023/04/05 04:13:51;;;;;;;1.23;1.23;;;;;;;;;;5068613;28;20203;-58
2023/04/05 04:16:18;;;;;;;1.03;1.03;;;;;;;;;;5065540;28;20985;-57
2023/04/05 04:18:45;;;;;;;0.53;0.53;;;;;;;;;;5057328;28;20203;-58
2023/04/05 04:21:15;;;;;;;0.90;0.90;;;;;;;;;;5058195;28;20199;-57
2023/04/05 04:23:44;;;;;;;1.27;1.27;;;;;;;;;;5068532;28;20596;-58
2023/04/05 04:26:13;;;;;;;1.57;1.47;;;;;;;;;;5068096;28;20559;-57
2023/04/05 04:28:42;;;;;;;0.80;0.80;;;;;;;;;;5053278;28;20231;-57
2023/04/05 04:31:12;;;;;;;1.40;1.27;;;;;;;;;;5059939;28;20223;-57
2023/04/05 04:33:42;;;;;;;2.90;1.27;;;;;;;;;;5053060;28;20200;-57
2023/04/05 04:36:12;;;;;;;1.03;1.03;;;;;;;;;;5069702;28;20686;-57
2023/04/05 04:38:41;;;;;;;2.67;1.53;;;;;;;;;;5057965;28;20670;-58
2023/04/05 04:41:10;;;;;;;6.23;1.03;;;;;;;;;;5056987;28;20206;-57
2023/04/05 04:43:42;;;;;;;1.33;1.23;;;;;;;;;;5065316;28;20207;-58
2023/04/05 04:46:13;;;;;;;3.23;1.00;;;;;;;;;;5061789;28;20573;-57
2023/04/05 04:48:41;;;;;;;1.30;1.20;;;;;;;;;;5050969;28;20515;-58
2023/04/05 04:51:09;;;;;;;1.20;1.10;;;;;;;;;;5051137;28;20718;-58
2023/04/05 04:53:36;;;;;;;1.27;1.20;;;;;;;;;;5065724;28;20256;-58
2023/04/05 04:56:06;;;;;;;1.27;1.20;;;;;;;;;;5068576;28;20698;-57
2023/04/05 04:58:34;;;;;;;1.93;1.43;;;;;;;;;;5050530;28;20666;-58
2023/04/05 05:01:01;;;;;;;1.17;1.00;;;;;;;;;;5061270;28;20198;-59
2023/04/05 05:03:29;;;;;;;1.13;1.03;;;;;;;;;;5047690;28;20203;-58
2023/04/05 05:05:56;;;;;;;1.20;1.20;;;;;;;;;;5049185;28;20298;-58
2023/04/05 05:08:23;;;;;;;3.13;1.30;;;;;;;;;;5064153;28;20210;-57
2023/04/05 05:10:52;;;;;;;1.30;1.30;;;;;;;;;;5068986;28;20630;-58
2023/04/05 05:13:19;;;;;;;1.33;1.23;;;;;;;;;;5064578;28;20610;-58
2023/04/05 05:15:47;;;;;;;1.17;1.07;;;;;;;;;;5051465;28;20219;-59
2023/04/05 05:18:14;;;;;;;2.27;1.00;;;;;;;;;;5067538;28;20207;-58
2023/04/05 05:20:42;;;;;;;4.67;1.10;;;;;;;;;;5060406;28;20850;-58
2023/04/05 05:23:09;;;;;;;2.00;1.47;;;;;;;;;;5048945;28;20251;-58
2023/04/05 05:25:36;;;;;;;1.20;1.20;;;;;;;;;;5061463;28;20214;-58
2023/04/05 05:28:03;;;;;;;3.93;1.63;;;;;;;;;;5059940;28;20210;-58
2023/04/05 05:30:30;;;;;;;1.13;1.13;;;;;;;;;;5064587;28;20238;-58
2023/04/05 05:33:00;;;;;;;1.97;1.70;;;;;;;;;;5054492;28;20207;-58
2023/04/05 05:35:27;;;;;;;1.70;1.03;;;;;;;;;;5048934;28;20257;-57
2023/04/05 05:37:54;;;;;;;2.33;1.67;;;;;;;;;;5062269;28;20227;-58
2023/04/05 05:40:21;;;;;;;4.43;1.97;;;;;;;;;;5069085;28;20702;-58
2023/04/05 05:42:48;;;;;;;1.13;1.13;;;;;;;;;;5062347;28;20682;-58
2023/04/05 05:45:15;;;;;;;2.40;1.80;;;;;;;;;;5048642;28;20208;-59
2023/04/05 05:47:42;;;;;;;3.73;1.67;;;;;;;;;;5049492;28;20291;-59
2023/04/05 05:50:11;;;;;;;3.83;1.47;;;;;;;;;;5049217;28;20674;-59
2023/04/05 05:52:38;;;;;;;3.67;1.47;;;;;;;;;;5048808;28;20703;-59
2023/04/05 05:55:06;;;;;;;2.10;1.80;;;;;;;;;;5055579;28;20214;-59
2023/04/05 05:57:33;;;;;;;1.20;1.20;;;;;;;;;;5069007;28;20214;-58
2023/04/05 06:00:00;;;;;;;2.77;1.80;;;;;;;;;;5068730;28;20214;-58
2023/04/05 06:02:27;;;;;;;1.43;1.20;;;;;;;;;;5068937;28;20217;-58
2023/04/05 06:04:54;;;;;;;3.73;2.23;;;;;;;;;;5068966;28;20254;-60
2023/04/05 06:07:23;;;;;;;1.70;1.60;;;;;;;;;;5068738;28;20217;-58
2023/04/05 06:09:50;;;;;;;1.17;1.17;;;;;;;;;;5068830;28;20218;-59
2023/04/05 06:12:17;;;;;;;2.77;1.90;;;;;;;;;;5069928;28;20238;-59
2023/04/05 06:14:44;;;;;;;2.30;2.13;;;;;;;;;;5072525;28;20214;-60
2023/04/05 06:17:11;;;;;;;2.00;1.93;;;;;;;;;;5072665;28;20207;-60
2023/04/05 06:19:38;;;;;;;1.93;1.83;;;;;;;;;;5072317;28;20195;-58
2023/04/05 06:22:05;;;;;;;2.73;2.00;;;;;;;;;;5071873;28;20724;-58
2023/04/05 06:24:33;;;;;;;4.27;2.17;;;;;;;;;;5070226;28;20209;-58
2023/04/05 06:27:01;;;;;;;3.20;2.47;;;;;;;;;;5052290;28;20200;-57
2023/04/05 06:29:28;;;;;;;1.57;1.57;;;;;;;;;;5049895;28;20215;-58
2023/04/05 06:31:55;;;;;;;5.10;2.37;;;;;;;;;;5052124;28;20243;-59
2023/04/05 06:34:22;;;;;;;2.50;2.10;;;;;;;;;;5052446;28;20212;-58
2023/04/05 06:36:49;;;;;;;2.07;1.80;;;;;;;;;;5051994;28;20212;-58
2023/04/05 06:39:16;;;;;;;3.40;1.83;;;;;;;;;;5051972;28;20368;-58
2023/04/05 06:41:45;;;;;;;2.20;2.10;;;;;;;;;;5051553;28;20225;-58
2023/04/05 06:44:12;;;;;;;3.10;2.13;;;;;;;;;;5051346;28;20208;-58
2023/04/05 06:46:39;;;;;;;1.70;1.60;;;;;;;;;;5051617;28;20509;-58
2023/04/05 06:49:06;;;;;;;2.10;1.93;;;;;;;;;;5051606;28;20591;-58
2023/04/05 06:51:33;;;;;;;2.27;2.17;;;;;;;;;;5060418;28;20370;-58
2023/04/05 06:54:00;;;;;;;2.37;2.00;;;;;;;;;;5071714;28;20207;-59
2023/04/05 06:56:28;;;;;;;1.37;0.93;;;;;;;;;;5071477;28;20309;-58
2023/04/05 06:58:58;;;;;;;2.30;1.47;;;;;;;;;;5071130;28;20209;-58
2023/04/05 07:01:26;;;;;;;2.90;2.00;;;;;;;;;;5071176;28;20203;-58
2023/04/05 07:03:53;;;;;;;2.00;1.90;;;;;;;;;;5071588;28;20207;-58
2023/04/05 07:06:22;;;;;;;3.37;1.70;;;;;;;;;;5071070;28;20203;-58
2023/04/05 07:08:49;;;;;;;2.57;1.77;;;;;;;;;;5070973;28;20211;-58
2023/04/05 07:11:16;;;;;;;1.80;1.63;;;;;;;;;;5070978;28;20327;-59
2023/04/05 07:13:43;;;;;;;2.63;1.97;;;;;;;;;;5059829;28;20203;-59
2023/04/05 07:16:12;;;;;;;1.97;1.87;;;;;;;;;;5051307;28;20207;-58
2023/04/05 07:18:39;;;;;;;0.80;0.80;;;;;;;;;;5051744;28;20210;-59
2023/04/05 07:21:06;;;;;;;2.07;1.97;;;;;;;;;;5064699;28;20222;-59
2023/04/05 07:23:33;;;;;;;1.50;1.37;;;;;;;;;;5070249;28;20254;-58
2023/04/05 07:26:03;;;;;;;1.30;1.30;;;;;;;;;;5058846;28;20883;-59
2023/04/05 07:28:30;;;;;;;2.30;2.20;;;;;;;;;;5051299;28;20211;-59
2023/04/05 07:30:57;;;;;;;1.60;1.50;;;;;;;;;;5055802;28;20207;-59
2023/04/05 07:33:26;;;;;;;1.23;1.23;;;;;;;;;;5057702;28;20207;-59
2023/04/05 07:35:53;;;;;;;2.27;1.87;;;;;;;;;;5060802;28;20203;-59
2023/04/05 07:38:20;;;;;;;1.87;1.73;;;;;;;;;;5069881;28;20291;-59
2023/04/05 07:40:48;;;;;;;1.10;1.00;;;;;;;;;;5064337;28;20203;-59
2023/04/05 07:43:16;;;;;;;3.13;0.50;;;;;;;;;;5068957;28;20758;-59
2023/04/05 07:45:43;;;;;;;1.90;1.70;;;;;;;;;;5070738;28;20211;-58
2023/04/05 07:48:10;;;;;;;1.93;1.70;;;;;;;;;;5070645;28;20199;-58
2023/04/05 07:50:41;;;;;;;1.93;1.43;;;;;;;;;;5058372;28;20210;-58
2023/04/05 07:53:08;;;;;;;1.63;1.50;;;;;;;;;;5070437;28;20317;-58
2023/04/05 07:55:37;;;;;;;4.43;1.60;;;;;;;;;;5061367;28;20211;-58
2023/04/05 07:58:05;;;;;;;1.43;1.20;;;;;;;;;;5070811;28;20214;-58
2023/04/05 08:00:32;;;;;;;1.30;1.13;;;;;;;;;;5051800;28;20211;-58
2023/04/05 08:02:59;;;;;;;1.53;1.43;;;;;;;;;;5050362;28;20229;-58
2023/04/05 08:05:28;;;;;;;1.10;1.10;;;;;;;;;;5067228;28;20199;-58
2023/04/05 08:07:56;;;;;;;2.13;1.20;;;;;;;;;;5070440;28;20207;-58
2023/04/05 08:10:24;;;;;;;1.37;1.37;;;;;;;;;;5053849;28;20731;-58
2023/04/05 08:12:51;;;;;;;14.83;3.00;;;;;;;;;;5050116;28;20238;-58
2023/04/05 08:15:18;;;;;;;0.60;0.60;;;;;;;;;;5064384;28;20569;-58
2023/04/05 08:17:45;;;;;;;5.43;1.17;;;;;;;;;;5057268;28;20207;-59
2023/04/05 08:20:13;;;;;;;1.43;1.33;;;;;;;;;;5050965;28;20218;-58
2023/04/05 08:22:40;;;;;;;1.63;1.23;;;;;;;;;;5058287;28;20214;-58
2023/04/05 08:25:09;;;;;;;1.30;1.23;;;;;;;;;;5066912;28;20665;-58
2023/04/05 08:27:36;;;;;;;2.20;1.33;;;;;;;;;;5049930;28;20219;-58
2023/04/05 08:30:04;;;;;;;1.07;1.07;;;;;;;;;;5051485;28;20223;-58
2023/04/05 08:32:31;;;;;;;0.90;0.90;;;;;;;;;;5069757;28;20357;-59
2023/04/05 08:34:58;;;;;;;1.20;1.10;;;;;;;;;;5069558;28;20215;-58
2023/04/05 08:37:26;;;;;;;2.23;1.37;;;;;;;;;;5063346;28;20665;-56
2023/04/05 08:39:53;;;;;;;1.83;1.27;;;;;;;;;;5067459;28;20258;-57
2023/04/05 08:42:26;;;;;;;1.70;1.60;;;;;;;;;;5069651;28;20199;-57
2023/04/05 08:44:54;;;;;;;0.60;0.60;;;;;;;;;;5068405;28;20203;-56
2023/04/05 08:47:23;;;;;;;1.10;1.10;;;;;;;;;;5067810;28;20289;-57
2023/04/05 08:49:50;;;;;;;1.90;1.30;;;;;;;;;;5052682;28;20219;-58
2023/04/05 08:52:17;;;;;;;2.20;1.63;;;;;;;;;;5052155;28;20222;-58
2023/04/05 08:54:44;;;;;;;1.87;1.70;;;;;;;;;;5069611;28;20222;-57
2023/04/05 08:57:11;;;;;;;2.50;1.37;;;;;;;;;;5066001;28;20232;-59
2023/04/05 08:59:42;;;;;;;1.43;0.80;;;;;;;;;;5066718;28;20222;-57
2023/04/05 09:02:18;;;;;;;1.93;1.20;;;;;;;;;;5065357;28;20321;-58
2023/04/05 09:04:45;;;;;;;1.77;1.50;;;;;;;;;;5055374;28;20700;-58
2023/04/05 09:07:13;;;;;;;6.40;1.37;;;;;;;;;;5056850;28;20210;-58
2023/04/05 09:09:42;;;;;;;1.50;1.40;;;;;;;;;;5068563;28;21022;-57
2023/04/05 09:12:09;;;;;;;1.50;1.50;;;;;;;;;;5067189;28;20642;-57
2023/04/05 09:14:37;;;;;;;1.37;1.37;;;;;;;;;;5066281;28;20210;-58
2023/04/05 09:17:06;;;;;;;1.80;1.40;;;;;;;;;;5067546;28;20203;-58
2023/04/05 09:19:33;;;;;;;1.37;1.37;;;;;;;;;;5067659;28;20215;-58
2023/04/05 09:22:01;;;;;;;1.60;1.60;;;;;;;;;;5067912;28;20227;-59
2023/04/05 09:24:33;;;;;;;1.80;1.70;;;;;;;;;;5050487;28;20215;-58
2023/04/05 09:27:07;;;;;;;3.83;1.23;;;;;;;;;;5063126;28;20208;-58
2023/04/05 09:29:35;;;;;;;1.80;1.70;;;;;;;;;;5049088;28;20208;-58
2023/04/05 09:32:02;;;;;;;1.53;1.50;;;;;;;;;;5068151;28;20230;-59
2023/04/05 09:34:32;;;;;;;1.80;1.37;;;;;;;;;;5069031;28;21034;-59
2023/04/05 09:37:00;;;;;;;1.10;1.10;;;;;;;;;;5049859;28;20199;-58
2023/04/05 09:39:31;;;;;;;1.63;1.53;;;;;;;;;;5047285;28;20732;-58
2023/04/05 09:42:07;;;;;;;1.73;1.63;;;;;;;;;;5050275;28;20199;-59
2023/04/05 09:44:54;;;;;;;1.67;1.57;;;;;;;;;;5049275;28;20211;-58
2023/04/05 09:47:23;;;;;;;1.80;1.70;;;;;;;;;;5048702;28;20212;-58
2023/04/05 09:49:52;;;;;;;2.33;1.50;;;;;;;;;;5049253;28;20226;-59
2023/04/05 09:52:20;;;;;;;1.10;1.10;;;;;;;;;;5055822;28;20233;-58
2023/04/05 09:54:47;;;;;;;0.70;0.70;;;;;;;;;;5051048;28;20210;-59
2023/04/05 09:57:16;;;;;;;3.07;1.60;;;;;;;;;;5067725;28;20215;-58
2023/04/05 09:59:43;;;;;;;1.57;1.43;;;;;;;;;;5068358;28;20242;-58
2023/04/05 10:02:11;;;;;;;1.67;1.40;;;;;;;;;;5066586;28;20210;-59
2023/04/05 10:04:41;;;;;;;2.93;1.30;;;;;;;;;;5055418;28;20213;-58
2023/04/05 10:07:12;;;;;;;1.97;1.13;;;;;;;;;;5050190;28;20265;-59
2023/04/05 10:09:39;;;;;;;2.43;1.60;;;;;;;;;;5058437;28;20227;-59
2023/04/05 10:12:07;;;;;;;2.10;1.93;;;;;;;;;;5055997;28;20588;-59
2023/04/05 10:14:34;;;;;;;1.53;1.43;;;;;;;;;;5057798;28;20339;-59
2023/04/05 10:17:05;;;;;;;1.60;1.60;;;;;;;;;;5048985;28;20215;-59
2023/04/05 10:19:35;;;;;;;2.20;1.40;;;;;;;;;;5058948;28;20203;-59
2023/04/05 10:22:03;;;;;;;2.03;1.60;;;;;;;;;;5068360;28;20603;-59
2023/04/05 10:24:36;;;;;;;1.27;1.27;;;;;;;;;;5067333;28;20206;-59
2023/04/05 10:27:05;;;;;;;1.93;1.60;;;;;;;;;;5062744;28;20203;-59
2023/04/05 10:29:38;;;;;;;1.47;1.47;;;;;;;;;;5059120;28;20207;-58
2023/04/05 10:32:11;;;;;;;1.90;1.80;;;;;;;;;;5048586;28;20208;-58
2023/04/05 10:34:46;;;;;;;1.80;1.70;;;;;;;;;;5049257;28;20219;-58
2023/04/05 10:37:17;;;;;;;1.03;1.00;;;;;;;;;;5067586;28;20207;-58
2023/04/05 10:39:47;;;;;;;1.17;1.17;;;;;;;;;;5068135;28;20242;-58
2023/04/05 10:42:17;;;;;;;1.93;1.83;;;;;;;;;;5060485;28;20195;-58
2023/04/05 10:44:44;;;;;;;2.60;1.40;;;;;;;;;;5064747;28;20211;-58
2023/04/05 10:47:16;;;;;;;1.97;1.60;;;;;;;;;;5068056;28;20222;-57
2023/04/05 10:49:43;;;;;;;1.80;1.70;;;;;;;;;;5052142;28;20232;-58
2023/04/05 10:52:10;;;;;;;1.47;1.43;;;;;;;;;;5063862;28;20311;-58
2023/04/05 10:54:37;;;;;;;2.07;1.60;;;;;;;;;;5068271;28;20298;-59
2023/04/05 10:57:07;;;;;;;1.70;1.70;;;;;;;;;;5054798;28;20203;-66
2023/04/05 10:59:34;;;;;;;1.90;1.80;;;;;;;;;;5070005;28;20207;-62
2023/04/05 11:02:02;;;;;;;3.40;2.07;;;;;;;;;;5071160;28;20211;-57
2023/04/05 11:04:29;;;;;;;1.77;1.67;;;;;;;;;;5069918;28;20203;-58
2023/04/05 11:07:11;;;;;;;1.30;1.30;;;;;;;;;;5071661;28;20618;-58
2023/04/05 11:09:39;;;;;;;1.83;1.33;;;;;;;;;;5071185;28;20242;-58
2023/04/05 11:12:07;;;;;;;4.83;1.93;;;;;;;;;;5069861;28;20211;-58
2023/04/05 11:14:37;;;;;;;1.57;1.57;;;;;;;;;;5069634;28;20217;-59
2023/04/05 11:17:05;;;;;;;2.10;1.80;;;;;;;;;;5069598;28;20739;-59
2023/04/05 11:19:51;;;;;;;2.57;1.67;;;;;;;;;;5071729;28;20214;-59
2023/04/05 11:22:25;;;;;;;2.33;1.77;;;;;;;;;;5060701;28;20262;-59
2023/04/05 11:24:55;;;;;;;1.77;1.67;;;;;;;;;;5055908;28;20218;-59
2023/04/05 11:27:27;;;;;;;1.80;1.70;;;;;;;;;;5069575;28;20559;-59
2023/04/05 11:29:55;;;;;;;1.87;1.80;;;;;;;;;;5058126;28;20196;-60
2023/04/05 11:32:22;;;;;;;1.77;1.70;;;;;;;;;;5052437;28;20203;-59
2023/04/05 11:34:59;;;;;;;1.87;1.77;;;;;;;;;;5071199;28;20239;-60
2023/04/05 11:37:41;;;;;;;2.07;1.90;;;;;;;;;;5069374;28;20335;-59
2023/04/05 11:40:28;;;;;;;2.47;1.80;;;;;;;;;;5068652;28;20214;-60
2023/04/05 11:43:13;;;;;;;1.83;1.57;;;;;;;;;;5053956;28;20913;-68
2023/04/05 11:45:42;;;;;;;1.80;1.40;;;;;;;;;;5052631;28;20211;-63
2023/04/05 11:48:10;;;;;;;1.93;1.73;;;;;;;;;;5051760;28;20587;-60
2023/04/05 11:50:37;;;;;;;3.20;1.50;;;;;;;;;;5069701;28;20216;-60
2023/04/05 11:53:11;;;;;;;1.60;1.60;;;;;;;;;;5065338;28;20262;-60
2023/04/05 11:55:38;;;;;;;1.50;1.50;;;;;;;;;;5061574;28;20571;-59
2023/04/05 11:58:12;;;;;;;1.10;1.10;;;;;;;;;;5070820;28;20600;-59
2023/04/05 12:00:39;;;;;;;0.87;0.87;;;;;;;;;;5071084;28;20210;-59
2023/04/05 12:03:07;;;;;;;0.93;0.90;;;;;;;;;;5063616;28;20203;-59
2023/04/05 12:05:45;;;;;;;1.80;1.70;;;;;;;;;;5057969;28;20200;-59
2023/04/05 12:08:12;;;;;;;1.40;1.30;;;;;;;;;;5062139;28;20207;-59
2023/04/05 12:10:39;;;;;;;1.53;1.50;;;;;;;;;;5069954;28;20214;-60
2023/04/05 12:13:06;;;;;;;2.27;1.30;;;;;;;;;;5070235;28;20321;-59
2023/04/05 12:15:36;;;;;;;3.20;1.70;;;;;;;;;;5057388;28;20215;-59
2023/04/05 12:18:03;;;;;;;1.47;1.47;;;;;;;;;;5058036;28;20207;-60
2023/04/05 12:20:32;;;;;;;1.60;1.60;;;;;;;;;;5050448;28;20211;-60
2023/04/05 12:22:59;;;;;;;1.60;1.50;;;;;;;;;;5050877;28;20220;-60
2023/04/05 12:25:27;;;;;;;2.80;1.60;;;;;;;;;;5059448;28;20584;-60
2023/04/05 12:27:54;;;;;;;1.90;1.80;;;;;;;;;;5058505;28;20215;-60
2023/04/05 12:30:21;;;;;;;1.10;1.10;;;;;;;;;;5050178;28;20589;-60
2023/04/05 12:32:50;;;;;;;3.40;1.37;;;;;;;;;;5051071;28;20223;-60
2023/04/05 12:35:19;;;;;;;1.63;1.53;;;;;;;;;;5050119;28;20558;-60
2023/04/05 12:37:47;;;;;;;1.80;1.70;;;;;;;;;;5058891;28;20210;-60
2023/04/05 12:40:14;;;;;;;2.23;1.60;;;;;;;;;;5069934;28;20215;-60
2023/04/05 12:42:41;;;;;;;1.43;1.43;;;;;;;;;;5061640;28;20682;-60
2023/04/05 12:45:11;;;;;;;1.60;1.50;;;;;;;;;;5049688;28;20243;-58
2023/04/05 12:47:48;;;;;;;1.43;1.43;;;;;;;;;;5056354;28;20203;-58
2023/04/05 12:50:16;;;;;;;1.30;1.30;;;;;;;;;;5069684;28;20206;-58
2023/04/05 12:52:55;;;;;;;1.33;1.33;;;;;;;;;;5067585;28;20222;-58
2023/04/05 12:55:22;;;;;;;1.13;1.13;;;;;;;;;;5069427;28;20210;-58
2023/04/05 12:57:56;;;;;;;1.80;1.70;;;;;;;;;;5061702;28;20204;-57
2023/04/05 13:00:26;;;;;;;1.40;1.30;;;;;;;;;;5049011;28;20688;-58
2023/04/05 13:02:54;;;;;;;1.67;1.57;;;;;;;;;;5050278;28;20223;-57
2023/04/05 13:05:21;;;;;;;1.50;1.40;;;;;;;;;;5050459;28;20259;-58
2023/04/05 13:07:49;;;;;;;1.30;1.30;;;;;;;;;;5049450;28;20235;-59
2023/04/05 13:10:18;;;;;;;1.20;1.20;;;;;;;;;;5049614;28;20207;-59
2023/04/05 13:12:45;;;;;;;1.80;1.70;;;;;;;;;;5068527;28;20214;-58
2023/04/05 13:15:13;;;;;;;1.03;1.03;;;;;;;;;;5067846;28;20638;-59
2023/04/05 13:17:41;;;;;;;1.27;1.27;;;;;;;;;;5048303;28;20207;-59
2023/04/05 13:20:08;;;;;;;1.03;1.03;;;;;;;;;;5048280;28;20218;-59
2023/04/05 13:22:35;;;;;;;1.20;1.20;;;;;;;;;;5047559;28;20234;-59
2023/04/05 13:25:03;;;;;;;1.50;1.40;;;;;;;;;;5054472;28;20211;-59
2023/04/05 13:27:31;;;;;;;1.57;1.40;;;;;;;;;;5049734;28;20208;-61
2023/04/05 13:29:58;;;;;;;1.73;1.67;;;;;;;;;;5051844;28;20226;-59
2023/04/05 13:32:25;;;;;;;1.53;1.50;;;;;;;;;;5056140;28;20215;-57
2023/04/05 13:34:52;;;;;;;2.07;1.80;;;;;;;;;;5056542;28;20681;-58
2023/04/05 13:37:19;;;;;;;1.50;1.50;;;;;;;;;;5049322;28;20208;-58
2023/04/05 13:39:46;;;;;;;2.03;1.53;;;;;;;;;;5052369;28;20338;-59
2023/04/05 13:42:15;;;;;;;1.53;1.40;;;;;;;;;;5062288;28;20207;-59
2023/04/05 13:44:43;;;;;;;5.17;1.67;;;;;;;;;;5065271;28;20199;-59
2023/04/05 13:47:10;;;;;;;2.20;2.10;;;;;;;;;;5064608;28;20450;-59
2023/04/05 13:49:37;;;;;;;2.13;1.77;;;;;;;;;;5047960;28;20250;-59
2023/04/05 13:52:05;;;;;;;1.77;1.67;;;;;;;;;;5049391;28;20208;-59
2023/04/05 13:54:32;;;;;;;2.13;1.80;;;;;;;;;;5050265;28;20243;-59
2023/04/05 13:56:59;;;;;;;1.80;1.50;;;;;;;;;;5067118;28;20222;-60
2023/04/05 13:59:26;;;;;;;1.27;1.23;;;;;;;;;;5068711;28;20215;-59
2023/04/05 14:01:54;;;;;;;1.30;1.30;;;;;;;;;;5066917;28;20223;-59
2023/04/05 14:04:21;;;;;;;2.50;1.60;;;;;;;;;;5068790;28;20293;-59
2023/04/05 14:06:48;;;;;;;2.07;1.20;;;;;;;;;;5051588;28;20674;-60
2023/04/05 14:09:15;;;;;;;1.47;1.37;;;;;;;;;;5047059;28;20244;-57
2023/04/05 14:11:42;;;;;;;1.77;1.53;;;;;;;;;;5064481;28;20214;-58
2023/04/05 14:14:10;;;;;;;1.50;1.47;;;;;;;;;;5065260;28;20223;-59
2023/04/05 14:16:37;;;;;;;1.63;1.63;;;;;;;;;;5067867;28;20207;-58
2023/04/05 14:19:06;;;;;;;1.77;1.67;;;;;;;;;;5059439;28;20223;-58
2023/04/05 14:21:33;;;;;;;1.20;1.20;;;;;;;;;;5047523;28;20259;-59
2023/04/05 14:24:00;;;;;;;1.50;1.50;;;;;;;;;;5048783;28;20588;-58
2023/04/05 14:26:27;;;;;;;1.40;1.30;;;;;;;;;;5065449;28;20219;-58
2023/04/05 14:28:54;;;;;;;1.47;1.47;;;;;;;;;;5049659;28;20204;-58
2023/04/05 14:31:21;;;;;;;1.97;1.43;;;;;;;;;;5047122;28;20265;-58
2023/04/05 14:33:48;;;;;;;1.60;1.50;;;;;;;;;;5065527;28;20230;-58
2023/04/05 14:36:17;;;;;;;1.70;1.70;;;;;;;;;;5071438;28;20214;-58
2023/04/05 14:38:44;;;;;;;1.90;0.80;;;;;;;;;;5069114;28;20721;-58
2023/04/05 14:41:11;;;;;;;1.90;1.80;;;;;;;;;;5071012;28;20213;-58
2023/04/05 14:43:38;;;;;;;1.13;1.13;;;;;;;;;;5057306;28;20196;-58
2023/04/05 14:46:05;;;;;;;1.63;1.60;;;;;;;;;;5052340;28;20211;-58
2023/04/05 14:48:33;;;;;;;1.63;1.53;;;;;;;;;;5051341;28;20215;-58
2023/04/05 14:51:00;;;;;;;1.67;1.13;;;;;;;;;;5053390;28;20210;-58